Bridgeport, Alabama
Current Conditions -  °F | °C
As of 1:15 AM on Sunday 23 Nov 2014 (Local Time) from K4A6 Reporting Station
Overcast Overcast  
Wind Chill: 55°   Ceiling: 7000
Heat Index: 55°   Visibility: 10mi
Dew Point: 37°   Wind: 9mph
Humidity: 51%   Direction: 150°SSE
Pressure: 30.09"   Gusts: NA
Location:  34.95°N, 85.71°W
Report Text: K4A6 230715Z AUTO 15008KT 100V200 10SM SCT026 SCT048 OVC070 13/03 A3009 RMK AO2
Loading
Personal Weather Stations






























Interactive Weather Map New forecast layout! Learn more

10-Day Weather Forecast

Advertisements
Track Severe Weather on mobile